Terminal Aerodrome Forecast
Issued by NWS

Home | Current Version | Previous Version | Text Only | Print | Product List | Glossary On
Versions: 1 2 3 4 5 6 7 8 9 10 11 12 13 14 15 16
000
FTUS43 KIND 310500
TAFBMG
TAF
KBMG 310527Z 3106/0106 15003KT P6SM FEW250
     FM311400 22009KT P6SM BKN250
     FM312000 22009KT P6SM OVC080
     FM010000 20007KT 5SM -RASN SCT025 OVC050
      TEMPO 0100/0103 2SM -RASN BKN025 OVC050
      AMD LTD TO CLD VIS AND WIND TIL 311400=

USA.gov is the U.S. government's official web portal to all federal, state and local government web resources and services.